AirNav   ATP
 
 947 users online  

6J2 St George Airport
St George, South Carolina, USA

GOING TO ST GEORGE?


FAA INFORMATION EFFECTIVE 20 JULY 2017

Location

FAA Identifier: 6J2
Lat/Long: 33-11-43.8000N / 080-30-30.5000W
33-11.730000N / 080-30.508333W
33.1955000 / -80.5084722
(estimated)
Elevation: 84.8 ft. / 25.8 m (surveyed)
Variation: 06W (1995)
From city: 3 miles E of ST GEORGE, SC
Time zone: UTC -4 (UTC -5 during Standard Time)
Zip code: 29477

Airport Operations

Airport use: Open to the public
Activation date: 05/1969
Control tower: no
ARTCC: JACKSONVILLE CENTER
FSS: ANDERSON FLIGHT SERVICE STATION
NOTAMs facility: AND (NOTAM-D service available)
Attendance: UNATNDD
Wind indicator: lighted
Segmented circle: yes
Lights: SS-SR
Beacon: white-green (lighted land airport)
Operates sunset to sunrise.

Airport Communications

CTAF/UNICOM: 122.8
CHARLESTON APPROACH: 120.7
CHARLESTON DEPARTURE: 120.7
WX AWOS-3 at DYB (14 nm SE): 119.575 (843-821-8403)
WX AWOS-3 at RBW (18 nm S): 118.725 (843-538-3575)

Nearby radio navigation aids

VOR radial/distance  VOR name  Freq  Var
VANr196/17.0VANCE VORTAC110.4006W
CHSr312/29.8CHARLESTON VORTAC113.5005W

 
NDB name  Hdg/Dist  Freq  Var  ID
DORCHESTER COUNTY312/14.136507WDYB -.. -.-- -...
MANNING219/28.038106WMNI -- -. ..

Airport Services

Parking: tiedowns
Bottled oxygen: NONE
Bulk oxygen: NONE

Runway Information

Runway 5/23

Dimensions: 3201 x 60 ft. / 976 x 18 m
Surface: asphalt, in good condition
Weight bearing capacity: 
Single wheel: 21.0
Double wheel: 30.0
Runway edge lights: low intensity
Runway edge markings: RY 05 HAS NPI APCH, BUT VISUAL MARKINGS.
Gradient: GRADIENT 0.003% UP SW.
RUNWAY 5  RUNWAY 23
Latitude: 33-11.546867N33-11.914300N
Longitude: 080-30.733767W080-30.283133W
Elevation: 82.6 ft.82.5 ft.
Gradient: DOWNDOWNUP
Traffic pattern: leftleft
Runway heading: 052 magnetic, 046 true232 magnetic, 226 true
Markings: basic, in good conditionbasic, in good condition
Touchdown point: yes, no lightsyes, no lights
Obstructions: 98 ft. tree, 1336 ft. from runway, 167 ft. left of centerline, 11:1 slope to clear68 ft. tree, 1192 ft. from runway, 2 ft. left of centerline, 14:1 slope to clear

Airport Ownership and Management from official FAA records

Ownership: Publicly-owned
Owner: DORCHESTER COUNTY
PO BOX 416
ST GEORGE, SC 29477
Phone 843-563-0100
Manager: DON HAY
PO BOX 347, BOX 3
HARLEYVILLE, SC 29448
Phone 843-412-1999

Airport Operational Statistics

Aircraft based on the field: 11
Single engine airplanes: 6
Ultralights: 5
    
Aircraft operations: avg 67/month *
62% transient general aviation
38% local general aviation
* for 12-month period ending 17 August 2016

Additional Remarks

E67 NAVD88

Instrument Procedures

NOTE: All procedures below are presented as PDF files. If you need a reader for these files, you should download the free Adobe Reader.

NOT FOR NAVIGATION. Please procure official charts for flight.
FAA instrument procedures published for use between 20 July 2017 at 0901Z and 17 August 2017 at 0900Z.

 
IAPs - Instrument Approach Procedures
RNAV (GPS) RWY 05   download (184KB)
NOTE: Special Take-Off Minimums/Departure Procedures apply   download (141KB)

Other nearby airports with instrument procedures:

KDYB - Summerville Airport (14 nm SE)
KRBW - Lowcountry Regional Airport (18 nm S)
KOGB - Orangeburg Municipal Airport (24 nm NW)
KMKS - Berkeley County Airport (24 nm E)
KMNI - Santee Cooper Regional Airport (28 nm NE)
 
Loc | Ops | Rwys | IFR | FBO | Links
Com | Nav | Svcs | Stats | Notes


 
Area around 6J2 (St George Airport)
 
Road maps at: MapQuest Bing Google
 
Aerial photo
WARNING: Photo may not be current or correct
Aerial photo of 6J2 (St George Airport)
Photo courtesy of AirNav, LLC
Photo taken 03-Jul-2010

Do you have a better or more recent aerial photo of St George Airport that you would like to share? If so, please send us your photo.

 
Sectional chart

 
Airport distance calculator
Flying to St George Airport? Find the distance to fly.

From to 6J2

Sunrise and sunset
Times for 24-Jul-2017
 Local
(UTC-4)
 Zulu
(UTC)
Morning civil twilight06:0310:03
Sunrise06:3110:31
Sunset20:2600:26
Evening civil twilight20:5400:54

Current date and time
Zulu (UTC)  25-Jul-2017 02:04:27
Local (UTC-4)  24-Jul-2017 22:04:27
 
METAR
KDYB 
14nm SE 
250155Z AUTO 00000KT 10SM CLR 23/22 A3002 RMK AO1 LTG DSNT E THRU S
KRBW 
18nm S 
250155Z AUTO 00000KT 10SM CLR 23/22 A3002 RMK AO2 LTG DSNT S AND NW
KOGB 
24nm NW 
250153Z AUTO 15004KT 10SM CLR 23/22 A3002 RMK AO2 SLP162 T02280217
KMKS 
24nm E 
250155Z AUTO 18005KT 10SM CLR 22/22 A3001 RMK AO2 LTG DSNT SE AND S
KMNI 
28nm NE 
250155Z AUTO 10SM CLR 23/23 A3000 RMK AO2 P0001
TAF
KOGB 
24nm NW 
250026Z 2500/2524 21005KT P6SM SCT040 BKN150 FM250300 VRB04KT P6SM SCT006 BKN050 FM250900 00000KT 3SM BR BKN004 FM251400 24006KT P6SM SCT035 BKN060
NOTAMs
Click for the latest NOTAMs
NOTAMs are issued by the DoD/FAA and will open in a separate window not controlled by AirNav.

 

 
 

Would you like to see your business listed on this page?

 If your business provides an interesting product or service to pilots, flight crews, aircraft, or users of the St George Airport, you should consider listing it here.  To start the listing process, click on the button below
 
Add a business
 

Other Pages about St George Airport

Update a link
 
Copyright © AirNav, LLC. All rights reserved. Privacy Policy  Contact